KPSC/PSC METAR and TAF weather

Enter ICAO airport designator
Station Type Date Time Source
KPSC METAR 2018/12/11 17:53 UTC NOAA

KPSC 111753Z 00000KT 6SM BR FEW005 SCT065 BKN080 01/M01 A3005 RMK AO2 SLP181 I6000 T00061006 10006 21006 56018


Station Type Date Time Source
KPSC Decoded METAR 2018/12/11 17:53 UTC NOAA

TRI-CITIES AIRPORT, WA, United States (KPSC) 46-16N 119-07W 121M
Dec 11, 2018 - 12:53 PM EST / 2018.12.11 1753 UTC
Wind: Calm:0
Visibility: 6 mile(s):0
Sky conditions: mostly cloudy
Weather: mist
Temperature: 33.1 F (0.6 C)
Dew Point: 30.9 F (-0.6 C)
Relative Humidity: 91%
Pressure (altimeter): 30.05 in. Hg (1017 hPa)
Pressure tendency: 0.05 inches (1.8 hPa) lower than three hours ago
ob: KPSC 111753Z 00000KT 6SM BR FEW005 SCT065 BKN080 01/M01 A3005 RMK AO2 SLP181 I6000 T00061006 10006 21006 56018
cycle: 18

Station Type Date Time Source
KPSC TAF 2018/12/11 18:39 UTC NOAA

TAF KPSC 111737Z 1118/1218 18008KT 4SM -RA BR FEW004 OVC060
FM112000 18010G18KT 6SM BR VCSH FEW004 OVC050
FM112200 19014G22KT P6SM BKN050
FM120300 22020G28KT P6SM SCT100 BKN150
FM120900 25022G30KT P6SM FEW150 SCT200
FM121400 23016G24KT P6SM FEW150 SCT200


Example: see airport list